Time;durP1;ratioP1;P1;durP2;ratioP2;P2;SDS_P1;SDS_P2;PMS_P1;PMS_P2;Temp;Humidity;BMP_temperature;BMP_pressure;BME280_temperature;BME280_humidity;BME280_pressure;Samples;Min_cycle;Max_cycle;Signal;HPM_P1;HPM_P2
2023/10/21 00:05:48;;;;;;;4.12;2.70;;;18.40;88.40;;;;;;10906591;32;20055;-71
2023/10/21 00:11:51;;;;;;;4.95;3.15;;;18.40;88.40;;;;;;10910706;32;20290;-71
2023/10/21 00:17:53;;;;;;;5.78;2.62;;;18.30;88.40;;;;;;10909391;32;20011;-71
2023/10/21 00:23:55;;;;;;;3.83;2.30;;;18.30;88.40;;;;;;10910300;32;20045;-71
2023/10/21 00:29:57;;;;;;;2.90;1.73;;;18.30;88.40;;;;;;10907993;32;20019;-71
2023/10/21 00:35:59;;;;;;;5.60;2.47;;;18.30;88.40;;;;;;10909727;32;20007;-71
2023/10/21 00:42:02;;;;;;;8.43;2.50;;;18.20;88.40;;;;;;10895591;32;20397;-71
2023/10/21 00:48:05;;;;;;;5.87;2.53;;;18.20;88.30;;;;;;10908947;32;20401;-71
2023/10/21 00:54:07;;;;;;;4.53;2.83;;;18.20;88.40;;;;;;10908130;32;20038;-71
2023/10/21 01:00:12;;;;;;;2.65;2.00;;;18.10;88.40;;;;;;10909145;32;20018;-71
2023/10/21 01:06:15;;;;;;;4.37;2.12;;;18.10;88.30;;;;;;10908770;32;20023;-71
2023/10/21 01:12:32;;;;;;;2.87;1.83;;;18.10;88.30;;;;;;10895296;32;20011;-71
2023/10/21 01:18:35;;;;;;;2.28;1.80;;;18.00;88.30;;;;;;10907035;32;20038;-71
2023/10/21 01:24:37;;;;;;;3.60;2.40;;;18.00;88.20;;;;;;10893036;32;20047;-71
2023/10/21 01:30:41;;;;;;;1.67;1.58;;;17.90;88.30;;;;;;10906618;32;20016;-71
2023/10/21 01:36:43;;;;;;;3.20;1.92;;;17.90;88.30;;;;;;10906540;32;20015;-71
2023/10/21 01:42:45;;;;;;;7.55;1.55;;;17.80;88.10;;;;;;10906054;32;20046;-71
2023/10/21 01:48:49;;;;;;;5.53;3.08;;;17.60;88.40;;;;;;10892629;32;20023;-71
2023/10/21 01:54:53;;;;;;;4.93;2.20;;;17.70;88.40;;;;;;10905771;32;20016;-71
2023/10/21 02:00:57;;;;;;;3.78;1.90;;;17.70;88.40;;;;;;10905633;32;20264;-71
2023/10/21 02:06:59;;;;;;;4.15;1.92;;;17.60;88.20;;;;;;10905422;32;20083;-71
2023/10/21 02:13:01;;;;;;;4.62;2.20;;;17.60;88.30;;;;;;10905091;32;20388;-71
2023/10/21 02:19:04;;;;;;;4.07;2.33;;;17.60;88.30;;;;;;10905194;32;20019;-71
2023/10/21 02:25:11;;;;;;;6.10;2.55;;;17.60;88.30;;;;;;10904855;32;20027;-71
2023/10/21 02:31:13;;;;;;;3.67;2.42;;;17.60;88.20;;;;;;10901960;32;20011;-71
2023/10/21 02:37:15;;;;;;;3.80;2.55;;;17.60;88.20;;;;;;10904789;32;20037;-71
2023/10/21 02:43:18;;;;;;;3.33;2.53;;;17.60;88.10;;;;;;10904725;32;20649;-71
2023/10/21 02:49:20;;;;;;;5.37;3.83;;;17.60;88.10;;;;;;10903732;32;20050;-71
2023/10/21 02:55:22;;;;;;;5.32;3.37;;;17.50;88.10;;;;;;10904189;32;20012;-71
2023/10/21 03:01:25;;;;;;;3.17;2.25;;;17.50;88.20;;;;;;10904079;32;20019;-71
2023/10/21 03:07:27;;;;;;;4.40;2.58;;;17.40;88.30;;;;;;10904003;32;20016;-71
2023/10/21 03:13:34;;;;;;;2.90;2.40;;;17.50;88.30;;;;;;10903951;32;20337;-71
2023/10/21 03:19:36;;;;;;;3.28;2.10;;;17.40;88.10;;;;;;10903899;32;20016;-71
2023/10/21 03:25:39;;;;;;;3.05;2.50;;;17.30;88.30;;;;;;10903691;32;20432;-71
2023/10/21 03:31:41;;;;;;;4.30;3.00;;;17.40;88.30;;;;;;10903636;32;20401;-71
2023/10/21 03:37:43;;;;;;;9.52;5.22;;;17.40;88.30;;;;;;10903515;32;20019;-70
2023/10/21 03:43:46;;;;;;;9.40;5.75;;;17.30;88.30;;;;;;10909909;32;20015;-70
2023/10/21 03:49:50;;;;;;;6.82;4.93;;;17.40;88.40;;;;;;10910273;32;20023;-71
2023/10/21 03:55:52;;;;;;;10.15;5.68;;;17.30;88.50;;;;;;10894488;32;20015;-70
2023/10/21 04:01:54;;;;;;;8.15;5.65;;;17.30;88.30;;;;;;10909898;32;20415;-71
2023/10/21 04:07:56;;;;;;;6.68;5.10;;;17.30;88.40;;;;;;10909701;32;20015;-71
2023/10/21 04:13:59;;;;;;;7.85;5.87;;;17.30;88.60;;;;;;10909427;32;20077;-71
2023/10/21 04:20:03;;;;;;;8.55;6.30;;;17.30;88.50;;;;;;10909269;32;20012;-71
2023/10/21 04:26:05;;;;;;;7.47;5.18;;;17.30;88.70;;;;;;10909165;32;20337;-71
2023/10/21 04:32:07;;;;;;;6.82;5.25;;;17.30;88.60;;;;;;10908817;32;20012;-71
2023/10/21 04:38:10;;;;;;;8.43;5.82;;;17.30;88.60;;;;;;10908631;32;20041;-71
2023/10/21 04:44:13;;;;;;;5.90;4.85;;;17.40;88.60;;;;;;10894831;32;20050;-71
2023/10/21 04:50:16;;;;;;;7.70;5.22;;;17.50;88.50;;;;;;10907521;32;20016;-71
2023/10/21 04:56:18;;;;;;;10.50;6.25;;;17.50;88.40;;;;;;10907901;32;20051;-71
2023/10/21 05:02:20;;;;;;;14.25;5.30;;;17.60;88.30;;;;;;10907624;32;20023;-71
2023/10/21 05:08:23;;;;;;;8.18;5.00;;;17.60;88.30;;;;;;10907582;32;20019;-71
2023/10/21 05:14:25;;;;;;;11.48;7.68;;;17.60;88.20;;;;;;10894095;32;20110;-71
2023/10/21 05:20:27;;;;;;;12.75;9.15;;;17.60;88.30;;;;;;10907624;32;20028;-71
2023/10/21 05:26:30;;;;;;;12.13;8.80;;;17.50;88.40;;;;;;10907467;32;20447;-71
2023/10/21 05:32:32;;;;;;;13.07;8.30;;;17.40;88.50;;;;;;10907189;32;20015;-71
2023/10/21 05:38:35;;;;;;;10.90;8.73;;;17.50;88.60;;;;;;10907601;32;20024;-71
2023/10/21 05:44:38;;;;;;;12.68;7.95;;;17.50;88.70;;;;;;10906536;32;20020;-71
2023/10/21 05:50:40;;;;;;;12.13;9.05;;;17.50;88.60;;;;;;10906448;32;20314;-71
2023/10/21 05:56:43;;;;;;;15.57;10.57;;;17.50;88.60;;;;;;10905845;32;20038;-70
2023/10/21 06:02:45;;;;;;;13.57;8.02;;;17.50;88.50;;;;;;10906178;32;20020;-70
2023/10/21 06:09:09;;;;;;;8.82;6.25;;;17.50;88.60;;;;;;10906026;32;20011;-71
2023/10/21 06:15:13;;;;;;;8.85;6.28;;;17.50;88.60;;;;;;10905300;32;20019;-71
2023/10/21 06:21:15;;;;;;;7.97;6.03;;;17.50;88.70;;;;;;10906279;32;20212;-71
2023/10/21 06:27:17;;;;;;;24.20;6.30;;;17.50;88.60;;;;;;10905487;32;20322;-71
2023/10/21 06:33:19;;;;;;;8.10;4.53;;;17.60;88.60;;;;;;10905270;32;20055;-70
2023/10/21 06:39:22;;;;;;;5.60;4.25;;;17.60;88.60;;;;;;10905823;32;20282;-70
2023/10/21 06:45:24;;;;;;;7.62;4.25;;;17.60;88.60;;;;;;10890573;32;20050;-70
2023/10/21 06:51:27;;;;;;;6.20;4.05;;;17.60;88.60;;;;;;10908085;27;20049;-70
2023/10/21 06:57:30;;;;;;;5.03;2.97;;;17.60;88.60;;;;;;10904190;32;20023;-70
2023/10/21 07:03:33;;;;;;;15.25;4.62;;;17.70;88.60;;;;;;10905155;32;20027;-70
2023/10/21 07:09:37;;;;;;;4.72;3.28;;;17.70;88.60;;;;;;10901583;32;20019;-70
2023/10/21 07:15:40;;;;;;;8.27;2.75;;;17.70;88.60;;;;;;10908020;32;20058;-70
2023/10/21 07:21:51;;;;;;;3.97;2.75;;;17.70;88.50;;;;;;10912654;32;20381;-70
2023/10/21 07:27:53;;;;;;;4.18;3.05;;;17.80;88.60;;;;;;10911095;32;20046;-70
2023/10/21 07:33:55;;;;;;;5.87;3.10;;;17.80;88.50;;;;;;10910842;32;20321;-70
2023/10/21 07:39:58;;;;;;;4.68;3.08;;;17.90;88.40;;;;;;10910257;32;20046;-70
2023/10/21 07:46:03;;;;;;;15.77;3.53;;;17.90;88.40;;;;;;10896629;32;20069;-70
2023/10/21 07:52:05;;;;;;;5.70;2.92;;;18.00;88.20;;;;;;10909998;32;20027;-70
2023/10/21 07:58:08;;;;;;;3.53;1.95;;;18.00;88.20;;;;;;10903729;32;20360;-70
2023/10/21 08:04:10;;;;;;;5.28;2.87;;;18.10;88.10;;;;;;10896219;32;20016;-70
2023/10/21 08:10:13;;;;;;;7.22;3.28;;;18.20;88.10;;;;;;10896255;32;20046;-70
2023/10/21 08:16:16;;;;;;;3.08;1.92;;;18.20;88.20;;;;;;10909214;32;20023;-70
2023/10/21 08:22:18;;;;;;;9.05;3.67;;;18.30;88.10;;;;;;10908696;32;20452;-70
2023/10/21 08:28:21;;;;;;;2.53;1.87;;;18.30;88.00;;;;;;10908135;32;20019;-70
2023/10/21 08:34:23;;;;;;;7.70;3.70;;;18.50;88.00;;;;;;10894859;32;20035;-71
2023/10/21 08:40:25;;;;;;;10.63;4.95;;;18.50;88.00;;;;;;10908441;32;20019;-70
2023/10/21 08:46:30;;;;;;;5.90;2.80;;;18.50;88.10;;;;;;10907946;32;20027;-70
2023/10/21 08:52:33;;;;;;;7.65;2.67;;;18.60;88.00;;;;;;10907819;32;20015;-70
2023/10/21 08:58:36;;;;;;;6.95;2.67;;;18.70;87.90;;;;;;10907593;32;20405;-70
2023/10/21 09:04:38;;;;;;;4.60;2.80;;;18.80;87.80;;;;;;10907590;32;20050;-70
2023/10/21 09:10:40;;;;;;;8.25;3.08;;;18.90;87.80;;;;;;10907225;32;20027;-70
2023/10/21 09:16:55;;;;;;;13.43;2.83;;;18.90;87.80;;;;;;10907121;32;20020;-70
2023/10/21 09:23:09;;;;;;;6.85;2.80;;;19.10;87.70;;;;;;10893594;32;20049;-70
2023/10/21 09:29:13;;;;;;;5.47;3.35;;;19.20;87.40;;;;;;10881634;32;20031;-71
2023/10/21 09:35:27;;;;;;;7.57;2.65;;;19.20;87.50;;;;;;10906406;32;20024;-70
2023/10/21 09:41:29;;;;;;;4.50;2.37;;;19.20;87.40;;;;;;10906192;32;20432;-70
2023/10/21 09:47:36;;;;;;;5.95;3.05;;;19.30;87.30;;;;;;10890643;32;20073;-70
2023/10/21 09:53:55;;;;;;;4.68;2.60;;;19.30;87.20;;;;;;10892219;32;20036;-72
2023/10/21 09:59:59;;;;;;;3.55;2.47;;;19.50;87.00;;;;;;10899624;32;20401;-72
2023/10/21 10:06:04;;;;;;;4.12;1.98;;;19.60;86.80;;;;;;10904721;32;20046;-72
2023/10/21 10:12:12;;;;;;;3.70;2.30;;;19.70;86.70;;;;;;10904771;32;20028;-72
2023/10/21 10:18:19;;;;;;;3.40;2.30;;;19.80;86.50;;;;;;10905083;32;20019;-72
2023/10/21 10:24:22;;;;;;;5.78;2.53;;;19.90;86.20;;;;;;10904647;32;20011;-72
2023/10/21 10:30:49;;;;;;;5.15;1.95;;;20.00;86.00;;;;;;10904769;32;20023;-72
2023/10/21 10:36:51;;;;;;;2.67;1.48;;;20.20;85.60;;;;;;10904819;32;20030;-72
2023/10/21 10:42:56;;;;;;;4.70;1.50;;;20.30;85.10;;;;;;10904397;32;20400;-72
2023/10/21 10:49:05;;;;;;;3.42;1.42;;;20.40;84.80;;;;;;10904078;32;20015;-72
2023/10/21 11:02:27;;;;;;;3.42;1.48;;;20.80;83.90;;;;;;10863993;32;20019;-71
2023/10/21 11:08:32;;;;;;;2.58;1.77;;;20.80;83.30;;;;;;10864473;32;20307;-71
2023/10/21 11:14:35;;;;;;;2.40;1.27;;;21.00;83.10;;;;;;10864741;32;20015;-72
2023/10/21 11:20:48;;;;;;;4.37;1.92;;;21.20;82.80;;;;;;10864174;32;20054;-72
2023/10/21 11:26:52;;;;;;;10.48;1.40;;;21.30;82.40;;;;;;10838522;32;20054;-72
2023/10/21 11:32:55;;;;;;;5.28;1.60;;;21.40;82.10;;;;;;10863815;32;20050;-72
2023/10/21 11:38:58;;;;;;;7.50;1.25;;;21.50;81.80;;;;;;10864073;32;20024;-72
2023/10/21 11:45:01;;;;;;;3.92;1.20;;;21.40;81.50;;;;;;10862706;32;20031;-72
2023/10/21 11:51:03;;;;;;;3.62;1.77;;;21.50;81.10;;;;;;10847333;32;20028;-72
2023/10/21 12:16:16;;;;;;;3.47;1.35;;;21.50;80.10;;;;;;10911168;32;20043;-72
2023/10/21 12:47:38;;;;;;;3.17;1.33;;;21.50;78.00;;;;;;10893858;32;20031;-73
2023/10/21 12:53:40;;;;;;;3.40;1.42;;;21.60;78.20;;;;;;10909157;32;20047;-71
2023/10/21 12:59:42;;;;;;;6.82;2.10;;;21.60;77.90;;;;;;10908439;32;20042;-72
2023/10/21 13:05:46;;;;;;;3.12;1.35;;;21.70;77.80;;;;;;10893563;32;20031;-71
2023/10/21 13:11:51;;;;;;;5.75;1.83;;;21.70;77.80;;;;;;10908832;32;20046;-72
2023/10/21 13:17:54;;;;;;;3.92;1.65;;;21.70;76.90;;;;;;10908233;32;20438;-71
2023/10/21 13:23:56;;;;;;;2.60;1.12;;;21.80;77.00;;;;;;10907600;32;20024;-73
2023/10/21 13:29:59;;;;;;;3.65;1.55;;;21.80;76.40;;;;;;10908072;32;20488;-71
2023/10/21 13:36:14;;;;;;;5.18;1.67;;;21.80;76.20;;;;;;10907869;32;20061;-71
2023/10/21 13:42:16;;;;;;;8.23;1.83;;;21.80;75.90;;;;;;10906926;32;20015;-72
2023/10/21 13:48:22;;;;;;;5.28;1.50;;;21.80;76.10;;;;;;10905454;32;20023;-72
2023/10/21 13:54:24;;;;;;;1.73;1.15;;;21.80;76.20;;;;;;10906156;32;20042;-72
2023/10/21 14:06:35;;;;;;;3.50;1.75;;;21.90;76.00;;;;;;10906060;32;20019;-71
2023/10/21 14:12:37;;;;;;;6.47;1.40;;;22.10;75.90;;;;;;10906994;32;20020;-71
2023/10/21 14:18:43;;;;;;;9.63;2.30;;;22.10;75.50;;;;;;10906537;32;20034;-71
2023/10/21 14:24:46;;;;;;;8.60;1.52;;;22.20;75.00;;;;;;10906204;32;20393;-71
2023/10/21 14:30:52;;;;;;;6.72;1.62;;;22.10;74.90;;;;;;10905518;32;20045;-71
2023/10/21 14:36:55;;;;;;;4.12;1.02;;;22.20;74.70;;;;;;10901900;32;20054;-71
2023/10/21 14:42:57;;;;;;;4.07;1.15;;;22.20;74.60;;;;;;10890384;32;20027;-72
2023/10/21 14:49:02;;;;;;;3.76;1.50;;;22.10;74.70;;;;;;10786601;27;7085228;-72
2023/10/21 14:55:06;;;;;;;5.62;1.25;;;21.90;74.90;;;;;;10980621;32;20465;-72
2023/10/21 15:01:08;;;;;;;7.95;1.42;;;21.80;75.40;;;;;;10967485;32;20006;-72
2023/10/21 15:07:10;;;;;;;3.75;1.52;;;21.60;75.90;;;;;;10974970;32;20053;-71
2023/10/21 15:13:13;;;;;;;4.60;1.37;;;21.50;76.30;;;;;;10979198;32;20397;-71
2023/10/21 15:19:17;;;;;;;4.22;1.70;;;21.40;76.50;;;;;;10978913;32;20015;-71
2023/10/21 15:25:19;;;;;;;3.62;1.77;;;21.30;76.80;;;;;;10978883;32;20408;-72
2023/10/21 15:31:21;;;;;;;2.95;1.17;;;21.30;76.90;;;;;;10978684;32;20014;-71
2023/10/21 15:37:24;;;;;;;1.80;1.30;;;21.30;77.20;;;;;;10969460;32;20344;-71
2023/10/21 15:43:26;;;;;;;6.60;1.30;;;21.20;77.50;;;;;;10985369;32;20041;-71
2023/10/21 15:49:28;;;;;;;6.30;2.10;;;21.10;77.70;;;;;;10984147;32;20414;-71
2023/10/21 15:55:30;;;;;;;3.03;1.50;;;21.00;78.10;;;;;;10982010;32;20084;-71
2023/10/21 16:01:35;;;;;;;5.03;1.90;;;20.90;78.30;;;;;;10982156;32;20026;-71
2023/10/21 16:07:37;;;;;;;4.82;1.80;;;20.80;78.60;;;;;;10985029;32;20027;-71
2023/10/21 16:13:39;;;;;;;5.90;1.35;;;20.80;78.80;;;;;;10982181;32;20046;-71
2023/10/21 16:20:09;;;;;;;3.92;1.87;;;20.70;79.00;;;;;;10971341;32;20073;-71
2023/10/21 16:26:12;;;;;;;3.53;2.22;;;20.70;79.20;;;;;;10965685;32;20026;-71
2023/10/21 16:32:15;;;;;;;4.18;1.65;;;20.60;79.30;;;;;;10952726;32;20057;-71
2023/10/21 16:38:19;;;;;;;4.70;1.48;;;20.60;79.50;;;;;;10932973;32;20018;-71
2023/10/21 16:44:26;;;;;;;7.07;2.37;;;20.50;79.60;;;;;;10932751;32;20051;-71
2023/10/21 16:50:28;;;;;;;3.37;1.65;;;20.50;79.90;;;;;;10945478;32;20385;-71
2023/10/21 16:56:37;;;;;;;2.40;1.70;;;20.40;79.90;;;;;;10945841;32;20019;-71
2023/10/21 17:02:42;;;;;;;5.22;1.55;;;20.40;80.00;;;;;;10945507;32;20033;-71
2023/10/21 17:08:44;;;;;;;7.53;1.80;;;20.30;80.10;;;;;;10945194;32;20019;-70
2023/10/21 17:14:53;;;;;;;6.07;2.08;;;20.30;80.30;;;;;;10931219;32;20093;-71
2023/10/21 17:20:59;;;;;;;6.53;1.73;;;20.30;80.30;;;;;;10944920;32;20320;-71
2023/10/21 17:27:01;;;;;;;9.43;2.03;;;20.20;80.50;;;;;;10944598;32;20055;-71
2023/10/21 17:33:04;;;;;;;2.78;1.98;;;20.30;80.50;;;;;;10944375;32;20015;-70
2023/10/21 17:39:07;;;;;;;2.83;1.80;;;20.30;80.60;;;;;;10944201;32;20023;-70
2023/10/21 17:45:09;;;;;;;6.47;2.70;;;20.20;80.80;;;;;;10944052;32;20023;-70
2023/10/21 17:51:11;;;;;;;4.10;1.90;;;20.00;80.40;;;;;;10944222;32;20072;-71
2023/10/21 17:57:14;;;;;;;4.50;1.95;;;19.90;80.30;;;;;;10942964;32;20011;-70
2023/10/21 18:03:18;;;;;;;1.85;1.23;;;19.80;80.40;;;;;;10943982;32;20023;-70
2023/10/21 18:09:20;;;;;;;2.75;1.67;;;19.70;80.60;;;;;;10944447;32;20019;-70
2023/10/21 18:15:24;;;;;;;1.85;1.50;;;19.60;80.80;;;;;;10944121;32;20037;-70
2023/10/21 18:21:26;;;;;;;3.72;1.48;;;19.50;80.90;;;;;;10944024;32;20027;-70
2023/10/21 18:27:29;;;;;;;1.77;1.20;;;19.50;81.10;;;;;;10943257;32;20050;-70
2023/10/21 18:33:31;;;;;;;1.85;1.45;;;19.40;81.30;;;;;;10943644;32;20459;-70
2023/10/21 18:39:34;;;;;;;3.05;1.45;;;19.30;81.60;;;;;;10942947;32;20049;-70
2023/10/21 18:45:36;;;;;;;3.17;1.60;;;19.20;81.90;;;;;;10941916;32;20023;-70
2023/10/21 18:51:39;;;;;;;1.35;1.02;;;19.10;82.10;;;;;;10942484;32;20041;-70
2023/10/21 18:57:44;;;;;;;3.92;1.55;;;19.10;82.20;;;;;;10938895;32;20318;-70
2023/10/21 19:03:46;;;;;;;2.12;1.52;;;19.10;82.20;;;;;;10929963;32;20324;-70
2023/10/21 19:09:49;;;;;;;8.18;1.62;;;19.00;82.10;;;;;;10944266;32;20023;-70
2023/10/21 19:15:51;;;;;;;1.40;1.30;;;18.90;82.20;;;;;;10933440;32;20336;-70
2023/10/21 19:21:53;;;;;;;1.10;1.00;;;19.00;82.40;;;;;;10950215;32;20100;-70
2023/10/21 19:27:56;;;;;;;2.37;1.40;;;18.90;82.60;;;;;;10949447;32;20316;-70
2023/10/21 19:33:58;;;;;;;3.30;1.45;;;18.90;82.70;;;;;;10982759;32;20050;-70
2023/10/21 19:40:03;;;;;;;1.00;1.00;;;18.80;82.70;;;;;;10987489;32;20376;-70
2023/10/21 19:46:06;;;;;;;9.63;1.62;;;18.80;82.80;;;;;;10974387;32;20027;-70
2023/10/21 19:52:09;;;;;;;1.83;1.00;;;18.80;82.90;;;;;;10953682;32;20031;-70
2023/10/21 19:58:13;;;;;;;1.17;0.80;;;18.80;83.10;;;;;;10948954;32;20078;-70
2023/10/21 20:04:15;;;;;;;0.70;0.70;;;18.80;83.10;;;;;;10948817;32;20023;-70
2023/10/21 20:10:20;;;;;;;2.45;0.85;;;18.80;83.20;;;;;;10948793;32;20349;-70
2023/10/21 20:16:53;;;;;;;1.62;1.33;;;18.80;83.10;;;;;;10948455;32;20018;-70
2023/10/21 20:23:14;;;;;;;3.15;1.10;;;18.80;83.10;;;;;;10942684;32;20011;-70
2023/10/21 20:29:16;;;;;;;2.28;1.23;;;18.70;83.10;;;;;;10948031;32;20381;-70
2023/10/21 20:35:19;;;;;;;1.33;1.23;;;18.70;83.10;;;;;;10947748;32;20049;-70
2023/10/21 20:41:22;;;;;;;1.73;1.25;;;18.70;83.30;;;;;;10948065;32;20046;-70
2023/10/21 20:47:25;;;;;;;1.65;1.15;;;18.50;83.80;;;;;;10946706;32;20054;-70
2023/10/21 20:53:28;;;;;;;4.03;1.62;;;18.50;84.00;;;;;;10946135;32;20050;-70
2023/10/21 20:59:31;;;;;;;1.92;1.45;;;18.50;84.00;;;;;;10945925;32;20020;-70
2023/10/21 21:05:35;;;;;;;3.95;1.35;;;18.50;84.00;;;;;;10946648;32;20022;-70
2023/10/21 21:11:37;;;;;;;1.40;1.30;;;18.50;84.00;;;;;;10945870;32;20027;-70
2023/10/21 21:17:39;;;;;;;2.33;1.55;;;18.60;83.90;;;;;;10946302;32;20015;-70
2023/10/21 21:23:42;;;;;;;2.37;1.92;;;18.60;83.90;;;;;;10945960;32;20079;-70
2023/10/21 21:29:44;;;;;;;1.87;1.52;;;18.60;83.90;;;;;;10945398;32;20022;-70
2023/10/21 21:36:00;;;;;;;2.58;1.80;;;18.60;83.80;;;;;;10930264;32;20031;-70
2023/10/21 21:42:03;;;;;;;1.85;1.15;;;18.60;83.80;;;;;;10945999;32;20015;-70
2023/10/21 21:48:05;;;;;;;3.70;1.27;;;18.50;83.80;;;;;;10945252;32;20328;-70
2023/10/21 21:54:09;;;;;;;1.65;1.50;;;18.40;83.80;;;;;;10943304;32;20018;-70
2023/10/21 22:00:12;;;;;;;2.95;1.90;;;18.40;83.90;;;;;;10944138;32;20015;-70
2023/10/21 22:06:15;;;;;;;2.47;1.30;;;18.40;84.00;;;;;;10945291;32;20316;-70
2023/10/21 22:12:17;;;;;;;3.22;1.55;;;18.40;84.00;;;;;;10931550;32;20385;-70
2023/10/21 22:18:23;;;;;;;3.33;2.15;;;18.40;84.10;;;;;;10944202;32;20010;-70
2023/10/21 22:24:25;;;;;;;3.35;2.47;;;18.30;84.20;;;;;;10943230;32;20045;-70
2023/10/21 22:30:40;;;;;;;2.87;1.85;;;18.30;84.10;;;;;;10939825;32;20419;-70
2023/10/21 22:36:43;;;;;;;2.97;2.08;;;18.30;84.10;;;;;;10943023;32;20077;-70
2023/10/21 22:42:50;;;;;;;4.65;1.60;;;18.30;84.10;;;;;;10942678;32;20014;-70
2023/10/21 22:48:54;;;;;;;1.83;1.63;;;18.30;84.00;;;;;;10935118;27;20376;-70
2023/10/21 22:54:56;;;;;;;2.58;1.85;;;18.30;84.00;;;;;;10976719;32;20018;-70
2023/10/21 23:01:02;;;;;;;2.35;1.30;;;18.30;84.10;;;;;;10966600;32;20018;-70
2023/10/21 23:07:08;;;;;;;2.53;1.70;;;18.30;84.20;;;;;;10980609;32;20023;-70
2023/10/21 23:13:11;;;;;;;1.40;1.17;;;18.30;84.10;;;;;;10980400;32;20022;-70
2023/10/21 23:19:13;;;;;;;7.30;1.83;;;18.20;84.20;;;;;;10980222;32;20041;-70
2023/10/21 23:25:19;;;;;;;2.42;1.60;;;18.20;84.30;;;;;;10979600;32;20019;-70
2023/10/21 23:31:21;;;;;;;2.15;1.55;;;18.20;84.40;;;;;;10980083;32;20054;-69
2023/10/21 23:37:24;;;;;;;1.23;0.93;;;18.10;84.50;;;;;;10979172;32;20022;-70
2023/10/21 23:43:26;;;;;;;2.78;1.92;;;18.10;84.50;;;;;;10980005;32;20423;-70
2023/10/21 23:49:29;;;;;;;2.03;1.23;;;18.10;84.40;;;;;;10978922;32;20030;-70
2023/10/21 23:55:58;;;;;;;2.62;1.92;;;18.00;84.60;;;;;;10980217;32;20019;-70
